sensor_id;sensor_type;location;lat;lon;timestamp;temperature;humidity
16732;DHT22;8484;50.904;9.192;2022-10-17T00:00:39;14.10;99.90
16732;DHT22;8484;50.904;9.192;2022-10-17T00:03:05;13.90;99.90
16732;DHT22;8484;50.904;9.192;2022-10-17T00:05:33;14.30;99.90
16732;DHT22;8484;50.904;9.192;2022-10-17T00:08:01;14.30;99.90
16732;DHT22;8484;50.904;9.192;2022-10-17T00:10:28;14.40;99.90
16732;DHT22;8484;50.904;9.192;2022-10-17T00:12:55;14.30;99.90
16732;DHT22;8484;50.904;9.192;2022-10-17T00:15:22;14.20;99.90
16732;DHT22;8484;50.904;9.192;2022-10-17T00:17:49;14.20;99.90
16732;DHT22;8484;50.904;9.192;2022-10-17T00:20:16;14.00;99.90
16732;DHT22;8484;50.904;9.192;2022-10-17T00:22:43;14.10;99.90
16732;DHT22;8484;50.904;9.192;2022-10-17T00:25:12;14.30;99.90
16732;DHT22;8484;50.904;9.192;2022-10-17T00:27:39;14.90;99.90
16732;DHT22;8484;50.904;9.192;2022-10-17T00:30:10;14.00;99.90
16732;DHT22;8484;50.904;9.192;2022-10-17T00:32:37;14.20;99.90
16732;DHT22;8484;50.904;9.192;2022-10-17T00:35:05;14.30;99.90
16732;DHT22;8484;50.904;9.192;2022-10-17T00:37:32;14.40;99.90
16732;DHT22;8484;50.904;9.192;2022-10-17T00:39:59;14.40;99.90
16732;DHT22;8484;50.904;9.192;2022-10-17T00:42:27;14.50;99.90
16732;DHT22;8484;50.904;9.192;2022-10-17T00:45:13;14.40;99.90
16732;DHT22;8484;50.904;9.192;2022-10-17T00:47:42;14.50;99.90
16732;DHT22;8484;50.904;9.192;2022-10-17T00:50:11;14.50;99.90
16732;DHT22;8484;50.904;9.192;2022-10-17T00:52:39;14.30;99.90
16732;DHT22;8484;50.904;9.192;2022-10-17T00:55:09;14.50;99.90
16732;DHT22;8484;50.904;9.192;2022-10-17T00:57:39;14.60;99.90
16732;DHT22;8484;50.904;9.192;2022-10-17T01:00:08;14.30;99.90
16732;DHT22;8484;50.904;9.192;2022-10-17T01:02:36;14.20;99.90
16732;DHT22;8484;50.904;9.192;2022-10-17T01:05:04;14.10;99.90
16732;DHT22;8484;50.904;9.192;2022-10-17T01:07:32;14.10;99.90
16732;DHT22;8484;50.904;9.192;2022-10-17T01:09:59;14.10;99.90
16732;DHT22;8484;50.904;9.192;2022-10-17T01:12:35;13.90;99.90
16732;DHT22;8484;50.904;9.192;2022-10-17T01:15:11;14.00;99.90
16732;DHT22;8484;50.904;9.192;2022-10-17T01:17:51;14.10;99.90
16732;DHT22;8484;50.904;9.192;2022-10-17T01:23:49;14.00;99.90
16732;DHT22;8484;50.904;9.192;2022-10-17T01:26:25;13.90;99.90
16732;DHT22;8484;50.904;9.192;2022-10-17T01:29:07;13.90;99.90
16732;DHT22;8484;50.904;9.192;2022-10-17T01:31:45;14.00;99.90
16732;DHT22;8484;50.904;9.192;2022-10-17T01:34:17;14.10;99.90
16732;DHT22;8484;50.904;9.192;2022-10-17T01:36:49;13.50;99.90
16732;DHT22;8484;50.904;9.192;2022-10-17T01:39:25;13.50;99.90
16732;DHT22;8484;50.904;9.192;2022-10-17T01:41:58;13.30;99.90
16732;DHT22;8484;50.904;9.192;2022-10-17T01:44:31;13.30;99.90
16732;DHT22;8484;50.904;9.192;2022-10-17T01:47:03;13.70;99.90
16732;DHT22;8484;50.904;9.192;2022-10-17T01:49:32;13.10;99.90
16732;DHT22;8484;50.904;9.192;2022-10-17T01:52:03;13.30;99.90
16732;DHT22;8484;50.904;9.192;2022-10-17T01:54:38;13.20;99.90
16732;DHT22;8484;50.904;9.192;2022-10-17T01:57:13;13.20;99.90
16732;DHT22;8484;50.904;9.192;2022-10-17T01:59:45;13.80;99.90
16732;DHT22;8484;50.904;9.192;2022-10-17T02:02:16;13.20;99.90
16732;DHT22;8484;50.904;9.192;2022-10-17T02:04:45;13.90;99.90
16732;DHT22;8484;50.904;9.192;2022-10-17T02:07:13;13.70;99.90
16732;DHT22;8484;50.904;9.192;2022-10-17T02:09:39;13.90;99.90
16732;DHT22;8484;50.904;9.192;2022-10-17T02:15:27;14.00;99.90
16732;DHT22;8484;50.904;9.192;2022-10-17T02:18:08;14.00;99.90
16732;DHT22;8484;50.904;9.192;2022-10-17T02:20:45;13.80;99.90
16732;DHT22;8484;50.904;9.192;2022-10-17T02:23:19;13.70;99.90
16732;DHT22;8484;50.904;9.192;2022-10-17T02:25:53;13.50;99.90
16732;DHT22;8484;50.904;9.192;2022-10-17T02:28:28;13.70;99.90
16732;DHT22;8484;50.904;9.192;2022-10-17T02:31:01;13.70;99.90
16732;DHT22;8484;50.904;9.192;2022-10-17T02:33:32;13.40;99.90
16732;DHT22;8484;50.904;9.192;2022-10-17T02:36:03;13.50;99.90
16732;DHT22;8484;50.904;9.192;2022-10-17T02:38:34;13.30;99.90
16732;DHT22;8484;50.904;9.192;2022-10-17T02:41:01;13.70;99.90
16732;DHT22;8484;50.904;9.192;2022-10-17T02:43:29;13.40;99.90
16732;DHT22;8484;50.904;9.192;2022-10-17T02:45:56;13.40;99.90
16732;DHT22;8484;50.904;9.192;2022-10-17T02:48:29;14.10;99.90
16732;DHT22;8484;50.904;9.192;2022-10-17T02:51:05;13.80;99.90
16732;DHT22;8484;50.904;9.192;2022-10-17T02:53:38;13.60;99.90
16732;DHT22;8484;50.904;9.192;2022-10-17T02:56:15;13.60;99.90
16732;DHT22;8484;50.904;9.192;2022-10-17T02:58:45;13.70;99.90
16732;DHT22;8484;50.904;9.192;2022-10-17T03:01:13;13.50;99.90
16732;DHT22;8484;50.904;9.192;2022-10-17T03:03:42;13.70;99.90
16732;DHT22;8484;50.904;9.192;2022-10-17T03:06:09;14.10;99.90
16732;DHT22;8484;50.904;9.192;2022-10-17T03:08:36;13.70;99.90
16732;DHT22;8484;50.904;9.192;2022-10-17T03:11:03;13.50;99.90
16732;DHT22;8484;50.904;9.192;2022-10-17T03:13:30;13.50;99.90
16732;DHT22;8484;50.904;9.192;2022-10-17T03:15:57;13.40;99.90
16732;DHT22;8484;50.904;9.192;2022-10-17T03:18:24;13.40;99.90
16732;DHT22;8484;50.904;9.192;2022-10-17T03:20:52;13.30;99.90
16732;DHT22;8484;50.904;9.192;2022-10-17T03:23:19;13.70;99.90
16732;DHT22;8484;50.904;9.192;2022-10-17T03:25:46;13.60;99.90
16732;DHT22;8484;50.904;9.192;2022-10-17T03:28:13;13.20;99.90
16732;DHT22;8484;50.904;9.192;2022-10-17T03:30:40;13.30;99.90
16732;DHT22;8484;50.904;9.192;2022-10-17T03:33:07;13.30;99.90
16732;DHT22;8484;50.904;9.192;2022-10-17T03:35:37;13.90;99.90
16732;DHT22;8484;50.904;9.192;2022-10-17T03:38:05;13.20;99.90
16732;DHT22;8484;50.904;9.192;2022-10-17T03:40:32;13.10;99.90
16732;DHT22;8484;50.904;9.192;2022-10-17T03:42:59;13.10;99.90
16732;DHT22;8484;50.904;9.192;2022-10-17T03:45:26;13.90;99.90
16732;DHT22;8484;50.904;9.192;2022-10-17T03:47:53;13.30;99.90
16732;DHT22;8484;50.904;9.192;2022-10-17T03:50:20;13.60;99.90
16732;DHT22;8484;50.904;9.192;2022-10-17T03:52:47;14.20;99.90
16732;DHT22;8484;50.904;9.192;2022-10-17T03:55:16;13.90;99.90
16732;DHT22;8484;50.904;9.192;2022-10-17T03:57:43;13.90;99.90
16732;DHT22;8484;50.904;9.192;2022-10-17T04:00:11;13.70;99.90
16732;DHT22;8484;50.904;9.192;2022-10-17T04:02:38;13.40;99.90
16732;DHT22;8484;50.904;9.192;2022-10-17T04:05:06;13.40;99.90
16732;DHT22;8484;50.904;9.192;2022-10-17T04:07:33;13.10;99.90
16732;DHT22;8484;50.904;9.192;2022-10-17T04:10:01;13.30;99.90
16732;DHT22;8484;50.904;9.192;2022-10-17T04:12:30;13.10;99.90
16732;DHT22;8484;50.904;9.192;2022-10-17T04:14:56;14.00;99.90
16732;DHT22;8484;50.904;9.192;2022-10-17T04:17:23;13.20;99.90
16732;DHT22;8484;50.904;9.192;2022-10-17T04:19:50;13.00;99.90
16732;DHT22;8484;50.904;9.192;2022-10-17T04:22:17;13.10;99.90
16732;DHT22;8484;50.904;9.192;2022-10-17T04:24:44;13.10;99.90
16732;DHT22;8484;50.904;9.192;2022-10-17T04:27:11;14.60;99.90
16732;DHT22;8484;50.904;9.192;2022-10-17T04:29:39;13.60;99.90
16732;DHT22;8484;50.904;9.192;2022-10-17T04:32:06;13.00;99.90
16732;DHT22;8484;50.904;9.192;2022-10-17T04:34:33;13.80;99.90
16732;DHT22;8484;50.904;9.192;2022-10-17T04:37:00;13.60;99.90
16732;DHT22;8484;50.904;9.192;2022-10-17T04:39:28;14.10;99.90
16732;DHT22;8484;50.904;9.192;2022-10-17T04:41:55;13.60;99.90
16732;DHT22;8484;50.904;9.192;2022-10-17T04:44:22;15.00;99.90
16732;DHT22;8484;50.904;9.192;2022-10-17T04:46:50;14.10;99.90
16732;DHT22;8484;50.904;9.192;2022-10-17T04:49:17;13.80;99.90
16732;DHT22;8484;50.904;9.192;2022-10-17T04:51:44;14.20;99.90
16732;DHT22;8484;50.904;9.192;2022-10-17T04:54:10;14.30;99.90
16732;DHT22;8484;50.904;9.192;2022-10-17T04:56:37;14.30;99.90
16732;DHT22;8484;50.904;9.192;2022-10-17T04:59:04;14.10;99.90
16732;DHT22;8484;50.904;9.192;2022-10-17T05:01:31;14.10;99.90
16732;DHT22;8484;50.904;9.192;2022-10-17T05:03:59;14.20;99.90
16732;DHT22;8484;50.904;9.192;2022-10-17T05:06:26;13.90;99.90
16732;DHT22;8484;50.904;9.192;2022-10-17T05:08:53;14.20;99.90
16732;DHT22;8484;50.904;9.192;2022-10-17T05:11:23;14.30;99.90
16732;DHT22;8484;50.904;9.192;2022-10-17T05:13:51;14.30;99.90
16732;DHT22;8484;50.904;9.192;2022-10-17T05:16:19;14.60;99.90
16732;DHT22;8484;50.904;9.192;2022-10-17T05:18:47;14.10;99.90
16732;DHT22;8484;50.904;9.192;2022-10-17T05:21:17;14.20;99.90
16732;DHT22;8484;50.904;9.192;2022-10-17T05:23:44;14.50;99.90
16732;DHT22;8484;50.904;9.192;2022-10-17T05:26:12;14.40;99.90
16732;DHT22;8484;50.904;9.192;2022-10-17T05:28:39;14.70;99.90
16732;DHT22;8484;50.904;9.192;2022-10-17T05:31:07;14.70;99.90
16732;DHT22;8484;50.904;9.192;2022-10-17T05:33:35;14.90;99.90
16732;DHT22;8484;50.904;9.192;2022-10-17T05:36:03;14.90;99.90
16732;DHT22;8484;50.904;9.192;2022-10-17T05:38:31;15.10;99.90
16732;DHT22;8484;50.904;9.192;2022-10-17T05:40:59;15.20;99.90
16732;DHT22;8484;50.904;9.192;2022-10-17T05:43:26;15.10;99.90
16732;DHT22;8484;50.904;9.192;2022-10-17T05:45:54;14.50;99.90
16732;DHT22;8484;50.904;9.192;2022-10-17T05:48:21;14.80;99.90
16732;DHT22;8484;50.904;9.192;2022-10-17T05:50:49;14.90;99.90
16732;DHT22;8484;50.904;9.192;2022-10-17T05:53:16;14.20;99.90
16732;DHT22;8484;50.904;9.192;2022-10-17T05:55:44;13.90;99.90
16732;DHT22;8484;50.904;9.192;2022-10-17T05:58:11;14.10;99.90
16732;DHT22;8484;50.904;9.192;2022-10-17T06:00:38;14.60;99.90
16732;DHT22;8484;50.904;9.192;2022-10-17T06:03:04;14.30;99.90
16732;DHT22;8484;50.904;9.192;2022-10-17T06:05:34;14.10;99.90
16732;DHT22;8484;50.904;9.192;2022-10-17T06:08:01;14.20;99.90
16732;DHT22;8484;50.904;9.192;2022-10-17T06:10:27;14.00;99.90
16732;DHT22;8484;50.904;9.192;2022-10-17T06:12:56;13.90;99.90
16732;DHT22;8484;50.904;9.192;2022-10-17T06:15:23;14.40;99.90
16732;DHT22;8484;50.904;9.192;2022-10-17T06:17:50;14.00;99.90
16732;DHT22;8484;50.904;9.192;2022-10-17T06:20:16;14.60;99.90
16732;DHT22;8484;50.904;9.192;2022-10-17T06:22:43;14.20;99.90
16732;DHT22;8484;50.904;9.192;2022-10-17T06:25:10;14.20;99.90
16732;DHT22;8484;50.904;9.192;2022-10-17T06:27:37;14.30;99.90
16732;DHT22;8484;50.904;9.192;2022-10-17T06:30:06;15.20;99.90
16732;DHT22;8484;50.904;9.192;2022-10-17T06:32:33;14.10;99.90
16732;DHT22;8484;50.904;9.192;2022-10-17T06:35:00;14.20;99.90
16732;DHT22;8484;50.904;9.192;2022-10-17T06:37:29;14.70;99.90
16732;DHT22;8484;50.904;9.192;2022-10-17T06:39:56;14.40;99.90
16732;DHT22;8484;50.904;9.192;2022-10-17T06:42:23;14.40;99.90
16732;DHT22;8484;50.904;9.192;2022-10-17T06:44:50;14.60;99.90
16732;DHT22;8484;50.904;9.192;2022-10-17T06:47:19;15.00;99.90
16732;DHT22;8484;50.904;9.192;2022-10-17T06:49:45;15.50;99.90
16732;DHT22;8484;50.904;9.192;2022-10-17T06:52:12;15.00;99.90
16732;DHT22;8484;50.904;9.192;2022-10-17T06:54:41;15.10;99.90
16732;DHT22;8484;50.904;9.192;2022-10-17T06:57:09;15.70;99.90
16732;DHT22;8484;50.904;9.192;2022-10-17T06:59:35;15.40;99.90
16732;DHT22;8484;50.904;9.192;2022-10-17T07:02:02;15.70;99.90
16732;DHT22;8484;50.904;9.192;2022-10-17T07:04:31;15.90;99.90
16732;DHT22;8484;50.904;9.192;2022-10-17T07:06:58;16.20;99.90
16732;DHT22;8484;50.904;9.192;2022-10-17T07:09:27;16.40;99.90
16732;DHT22;8484;50.904;9.192;2022-10-17T07:11:54;16.90;99.90
16732;DHT22;8484;50.904;9.192;2022-10-17T07:14:21;17.30;99.90
16732;DHT22;8484;50.904;9.192;2022-10-17T07:16:48;17.90;99.90
16732;DHT22;8484;50.904;9.192;2022-10-17T07:19:15;18.70;99.90
16732;DHT22;8484;50.904;9.192;2022-10-17T07:21:43;18.50;99.90
16732;DHT22;8484;50.904;9.192;2022-10-17T07:24:10;18.50;99.90
16732;DHT22;8484;50.904;9.192;2022-10-17T07:26:37;18.10;99.90
16732;DHT22;8484;50.904;9.192;2022-10-17T07:29:04;17.90;99.90
16732;DHT22;8484;50.904;9.192;2022-10-17T07:31:32;18.30;99.90
16732;DHT22;8484;50.904;9.192;2022-10-17T07:33:59;19.10;99.90
16732;DHT22;8484;50.904;9.192;2022-10-17T07:36:26;19.20;99.90
16732;DHT22;8484;50.904;9.192;2022-10-17T07:38:54;19.40;99.90
16732;DHT22;8484;50.904;9.192;2022-10-17T07:41:21;19.90;99.90
16732;DHT22;8484;50.904;9.192;2022-10-17T07:43:48;19.80;99.90
16732;DHT22;8484;50.904;9.192;2022-10-17T07:46:15;20.00;99.90
16732;DHT22;8484;50.904;9.192;2022-10-17T07:48:42;20.60;99.90
16732;DHT22;8484;50.904;9.192;2022-10-17T07:51:09;19.50;99.90
16732;DHT22;8484;50.904;9.192;2022-10-17T07:53:37;19.20;99.90
16732;DHT22;8484;50.904;9.192;2022-10-17T07:56:07;19.00;99.90
16732;DHT22;8484;50.904;9.192;2022-10-17T07:58:35;19.10;99.90
16732;DHT22;8484;50.904;9.192;2022-10-17T08:01:03;19.10;99.90
16732;DHT22;8484;50.904;9.192;2022-10-17T08:03:30;19.20;99.90
16732;DHT22;8484;50.904;9.192;2022-10-17T08:05:58;19.30;99.90
16732;DHT22;8484;50.904;9.192;2022-10-17T08:08:25;19.40;99.90
16732;DHT22;8484;50.904;9.192;2022-10-17T08:10:54;19.50;99.90
16732;DHT22;8484;50.904;9.192;2022-10-17T08:13:23;19.80;99.90
16732;DHT22;8484;50.904;9.192;2022-10-17T08:15:50;20.20;99.90
16732;DHT22;8484;50.904;9.192;2022-10-17T08:18:17;20.30;99.90
16732;DHT22;8484;50.904;9.192;2022-10-17T08:20:44;20.90;99.90
16732;DHT22;8484;50.904;9.192;2022-10-17T08:23:10;21.20;99.90
16732;DHT22;8484;50.904;9.192;2022-10-17T08:25:38;21.50;99.90
16732;DHT22;8484;50.904;9.192;2022-10-17T08:28:05;21.70;99.90
16732;DHT22;8484;50.904;9.192;2022-10-17T08:30:33;21.90;99.90
16732;DHT22;8484;50.904;9.192;2022-10-17T08:33:00;22.10;99.90
16732;DHT22;8484;50.904;9.192;2022-10-17T08:35:27;22.10;99.90
16732;DHT22;8484;50.904;9.192;2022-10-17T08:37:54;23.00;99.90
16732;DHT22;8484;50.904;9.192;2022-10-17T08:40:27;22.70;99.90
16732;DHT22;8484;50.904;9.192;2022-10-17T08:43:31;22.80;99.90
16732;DHT22;8484;50.904;9.192;2022-10-17T08:46:05;23.10;99.90
16732;DHT22;8484;50.904;9.192;2022-10-17T08:48:37;23.60;99.90
16732;DHT22;8484;50.904;9.192;2022-10-17T08:51:09;23.90;99.90
16732;DHT22;8484;50.904;9.192;2022-10-17T08:53:38;23.60;99.90
16732;DHT22;8484;50.904;9.192;2022-10-17T08:56:18;23.50;99.90
16732;DHT22;8484;50.904;9.192;2022-10-17T08:58:45;23.70;99.90
16732;DHT22;8484;50.904;9.192;2022-10-17T09:01:25;23.50;99.90
16732;DHT22;8484;50.904;9.192;2022-10-17T09:07:08;23.00;99.90
16732;DHT22;8484;50.904;9.192;2022-10-17T09:09:43;23.10;99.90
16732;DHT22;8484;50.904;9.192;2022-10-17T09:12:17;22.80;99.90
16732;DHT22;8484;50.904;9.192;2022-10-17T09:15:02;22.70;99.90
16732;DHT22;8484;50.904;9.192;2022-10-17T09:17:40;22.80;99.90
16732;DHT22;8484;50.904;9.192;2022-10-17T09:20:13;22.80;99.90
16732;DHT22;8484;50.904;9.192;2022-10-17T09:22:44;22.50;99.90
16732;DHT22;8484;50.904;9.192;2022-10-17T09:25:15;22.50;99.90
16732;DHT22;8484;50.904;9.192;2022-10-17T09:27:46;22.40;99.90
16732;DHT22;8484;50.904;9.192;2022-10-17T09:30:28;22.40;99.90
16732;DHT22;8484;50.904;9.192;2022-10-17T09:32:59;22.60;99.90
16732;DHT22;8484;50.904;9.192;2022-10-17T09:35:27;22.90;99.90
16732;DHT22;8484;50.904;9.192;2022-10-17T09:37:54;23.30;99.90
16732;DHT22;8484;50.904;9.192;2022-10-17T09:40:24;23.40;99.90
16732;DHT22;8484;50.904;9.192;2022-10-17T09:42:52;23.60;99.90
16732;DHT22;8484;50.904;9.192;2022-10-17T09:45:21;23.40;99.90
16732;DHT22;8484;50.904;9.192;2022-10-17T09:47:57;23.40;99.90
16732;DHT22;8484;50.904;9.192;2022-10-17T09:50:30;23.40;99.90
16732;DHT22;8484;50.904;9.192;2022-10-17T09:53:01;23.60;99.90
16732;DHT22;8484;50.904;9.192;2022-10-17T09:55:36;23.40;99.90
16732;DHT22;8484;50.904;9.192;2022-10-17T09:58:07;23.60;99.90
16732;DHT22;8484;50.904;9.192;2022-10-17T10:00:36;23.80;99.90
16732;DHT22;8484;50.904;9.192;2022-10-17T10:03:13;24.10;99.90
16732;DHT22;8484;50.904;9.192;2022-10-17T10:05:57;24.10;99.90
16732;DHT22;8484;50.904;9.192;2022-10-17T10:08:27;24.60;99.90
16732;DHT22;8484;50.904;9.192;2022-10-17T10:10:59;25.00;99.90
16732;DHT22;8484;50.904;9.192;2022-10-17T10:13:28;25.70;99.90
16732;DHT22;8484;50.904;9.192;2022-10-17T10:16:12;25.20;99.90
16732;DHT22;8484;50.904;9.192;2022-10-17T10:18:39;25.30;99.90
16732;DHT22;8484;50.904;9.192;2022-10-17T10:21:10;24.90;99.90
16732;DHT22;8484;50.904;9.192;2022-10-17T10:23:39;24.90;99.90
16732;DHT22;8484;50.904;9.192;2022-10-17T10:26:32;24.30;99.90
16732;DHT22;8484;50.904;9.192;2022-10-17T10:29:02;25.00;99.90
16732;DHT22;8484;50.904;9.192;2022-10-17T10:31:33;25.20;99.90
16732;DHT22;8484;50.904;9.192;2022-10-17T10:36:54;23.10;99.90
16732;DHT22;8484;50.904;9.192;2022-10-17T10:39:35;23.50;99.90
16732;DHT22;8484;50.904;9.192;2022-10-17T10:42:06;23.70;99.90
16732;DHT22;8484;50.904;9.192;2022-10-17T10:44:35;24.70;99.90
16732;DHT22;8484;50.904;9.192;2022-10-17T10:47:23;24.80;99.90
16732;DHT22;8484;50.904;9.192;2022-10-17T10:49:52;24.50;99.90
16732;DHT22;8484;50.904;9.192;2022-10-17T10:52:38;24.90;99.90
16732;DHT22;8484;50.904;9.192;2022-10-17T10:55:16;25.30;99.90
16732;DHT22;8484;50.904;9.192;2022-10-17T10:57:49;25.50;99.90
16732;DHT22;8484;50.904;9.192;2022-10-17T11:00:20;25.00;99.90
16732;DHT22;8484;50.904;9.192;2022-10-17T11:02:54;24.60;99.90
16732;DHT22;8484;50.904;9.192;2022-10-17T11:05:39;25.20;99.90
16732;DHT22;8484;50.904;9.192;2022-10-17T11:08:16;24.90;99.90
16732;DHT22;8484;50.904;9.192;2022-10-17T11:10:58;24.30;99.90
16732;DHT22;8484;50.904;9.192;2022-10-17T11:13:30;24.40;99.90
16732;DHT22;8484;50.904;9.192;2022-10-17T11:16:03;24.40;99.90
16732;DHT22;8484;50.904;9.192;2022-10-17T11:18:44;24.00;99.90
16732;DHT22;8484;50.904;9.192;2022-10-17T11:21:15;24.10;99.90
16732;DHT22;8484;50.904;9.192;2022-10-17T11:23:46;23.90;99.90
16732;DHT22;8484;50.904;9.192;2022-10-17T11:26:18;24.50;99.90
16732;DHT22;8484;50.904;9.192;2022-10-17T11:28:51;24.70;99.90
16732;DHT22;8484;50.904;9.192;2022-10-17T11:31:19;24.50;99.90
16732;DHT22;8484;50.904;9.192;2022-10-17T11:33:49;24.70;99.90
16732;DHT22;8484;50.904;9.192;2022-10-17T11:36:20;24.70;99.90
16732;DHT22;8484;50.904;9.192;2022-10-17T11:38:51;24.40;99.90
16732;DHT22;8484;50.904;9.192;2022-10-17T11:41:32;24.80;99.90
16732;DHT22;8484;50.904;9.192;2022-10-17T11:44:07;24.50;99.90
16732;DHT22;8484;50.904;9.192;2022-10-17T11:46:39;25.30;99.90
16732;DHT22;8484;50.904;9.192;2022-10-17T11:49:11;24.70;99.90
16732;DHT22;8484;50.904;9.192;2022-10-17T11:51:43;24.60;99.90
16732;DHT22;8484;50.904;9.192;2022-10-17T11:54:15;24.20;99.90
16732;DHT22;8484;50.904;9.192;2022-10-17T11:56:47;24.60;99.90
16732;DHT22;8484;50.904;9.192;2022-10-17T11:59:46;26.00;99.90
16732;DHT22;8484;50.904;9.192;2022-10-17T12:02:19;25.30;99.90
16732;DHT22;8484;50.904;9.192;2022-10-17T12:04:54;25.60;99.90
16732;DHT22;8484;50.904;9.192;2022-10-17T12:07:29;25.30;99.90
16732;DHT22;8484;50.904;9.192;2022-10-17T12:10:06;24.90;99.90
16732;DHT22;8484;50.904;9.192;2022-10-17T12:12:39;24.00;99.90
16732;DHT22;8484;50.904;9.192;2022-10-17T12:15:27;24.50;99.90
16732;DHT22;8484;50.904;9.192;2022-10-17T12:17:55;24.70;99.90
16732;DHT22;8484;50.904;9.192;2022-10-17T12:20:31;25.70;99.90
16732;DHT22;8484;50.904;9.192;2022-10-17T12:23:16;26.00;99.90
16732;DHT22;8484;50.904;9.192;2022-10-17T12:25:51;25.70;99.90
16732;DHT22;8484;50.904;9.192;2022-10-17T12:28:25;25.60;99.90
16732;DHT22;8484;50.904;9.192;2022-10-17T12:30:55;25.50;99.90
16732;DHT22;8484;50.904;9.192;2022-10-17T12:33:30;25.80;99.90
16732;DHT22;8484;50.904;9.192;2022-10-17T12:42:32;25.20;99.90
16732;DHT22;8484;50.904;9.192;2022-10-17T12:44:59;24.10;99.90
16732;DHT22;8484;50.904;9.192;2022-10-17T12:47:34;24.00;99.90
16732;DHT22;8484;50.904;9.192;2022-10-17T12:50:02;24.00;99.90
16732;DHT22;8484;50.904;9.192;2022-10-17T12:52:51;23.90;99.90
16732;DHT22;8484;50.904;9.192;2022-10-17T12:55:23;23.90;99.90
16732;DHT22;8484;50.904;9.192;2022-10-17T12:57:55;24.10;99.90
16732;DHT22;8484;50.904;9.192;2022-10-17T13:00:30;24.10;99.90
16732;DHT22;8484;50.904;9.192;2022-10-17T13:03:05;23.60;99.90
16732;DHT22;8484;50.904;9.192;2022-10-17T13:05:35;23.30;99.90
16732;DHT22;8484;50.904;9.192;2022-10-17T13:08:05;23.00;99.90
16732;DHT22;8484;50.904;9.192;2022-10-17T13:10:35;23.10;99.90
16732;DHT22;8484;50.904;9.192;2022-10-17T13:13:14;23.30;99.90
16732;DHT22;8484;50.904;9.192;2022-10-17T13:15:45;23.50;99.90
16732;DHT22;8484;50.904;9.192;2022-10-17T13:18:18;23.60;99.90
16732;DHT22;8484;50.904;9.192;2022-10-17T13:20:57;24.00;99.90
16732;DHT22;8484;50.904;9.192;2022-10-17T13:23:27;23.90;99.90
16732;DHT22;8484;50.904;9.192;2022-10-17T13:26:06;24.00;99.90
16732;DHT22;8484;50.904;9.192;2022-10-17T13:28:38;24.10;99.90
16732;DHT22;8484;50.904;9.192;2022-10-17T13:31:05;23.50;99.90
16732;DHT22;8484;50.904;9.192;2022-10-17T13:33:34;23.50;99.90
16732;DHT22;8484;50.904;9.192;2022-10-17T13:36:05;23.50;99.90
16732;DHT22;8484;50.904;9.192;2022-10-17T13:38:34;23.70;99.90
16732;DHT22;8484;50.904;9.192;2022-10-17T13:41:02;23.60;99.90
16732;DHT22;8484;50.904;9.192;2022-10-17T13:43:30;23.80;99.90
16732;DHT22;8484;50.904;9.192;2022-10-17T13:46:01;23.60;99.90
16732;DHT22;8484;50.904;9.192;2022-10-17T13:48:32;23.30;99.90
16732;DHT22;8484;50.904;9.192;2022-10-17T13:51:02;23.30;99.90
16732;DHT22;8484;50.904;9.192;2022-10-17T13:53:31;22.80;99.90
16732;DHT22;8484;50.904;9.192;2022-10-17T13:56:00;22.70;99.90
16732;DHT22;8484;50.904;9.192;2022-10-17T13:58:30;22.80;99.90
16732;DHT22;8484;50.904;9.192;2022-10-17T14:01:01;23.00;99.90
16732;DHT22;8484;50.904;9.192;2022-10-17T14:03:28;23.10;99.90
16732;DHT22;8484;50.904;9.192;2022-10-17T14:06:05;22.70;99.90
16732;DHT22;8484;50.904;9.192;2022-10-17T14:08:35;22.60;99.90
16732;DHT22;8484;50.904;9.192;2022-10-17T14:11:02;22.80;99.90
16732;DHT22;8484;50.904;9.192;2022-10-17T14:13:39;23.00;99.90
16732;DHT22;8484;50.904;9.192;2022-10-17T14:16:07;22.80;99.90
16732;DHT22;8484;50.904;9.192;2022-10-17T14:18:36;22.90;99.90
16732;DHT22;8484;50.904;9.192;2022-10-17T14:21:04;22.80;99.90
16732;DHT22;8484;50.904;9.192;2022-10-17T14:23:34;22.70;99.90
16732;DHT22;8484;50.904;9.192;2022-10-17T14:26:07;23.00;99.90
16732;DHT22;8484;50.904;9.192;2022-10-17T14:28:36;22.40;99.90
16732;DHT22;8484;50.904;9.192;2022-10-17T14:31:25;23.00;99.90
16732;DHT22;8484;50.904;9.192;2022-10-17T14:33:55;22.40;99.90
16732;DHT22;8484;50.904;9.192;2022-10-17T14:36:34;22.70;99.90
16732;DHT22;8484;50.904;9.192;2022-10-17T14:39:02;22.60;99.90
16732;DHT22;8484;50.904;9.192;2022-10-17T14:41:31;22.50;99.90
16732;DHT22;8484;50.904;9.192;2022-10-17T14:44:03;22.40;99.90
16732;DHT22;8484;50.904;9.192;2022-10-17T14:46:33;22.20;99.90
16732;DHT22;8484;50.904;9.192;2022-10-17T14:49:04;22.20;99.90
16732;DHT22;8484;50.904;9.192;2022-10-17T14:51:31;21.90;99.90
16732;DHT22;8484;50.904;9.192;2022-10-17T14:54:01;21.70;99.90
16732;DHT22;8484;50.904;9.192;2022-10-17T14:56:39;21.80;99.90
16732;DHT22;8484;50.904;9.192;2022-10-17T14:59:06;21.60;99.90
16732;DHT22;8484;50.904;9.192;2022-10-17T15:01:36;21.50;99.90
16732;DHT22;8484;50.904;9.192;2022-10-17T15:04:03;21.40;99.90
16732;DHT22;8484;50.904;9.192;2022-10-17T15:06:32;21.30;99.90
16732;DHT22;8484;50.904;9.192;2022-10-17T15:08:59;21.20;99.90
16732;DHT22;8484;50.904;9.192;2022-10-17T15:11:26;21.20;99.90
16732;DHT22;8484;50.904;9.192;2022-10-17T15:13:53;21.80;99.90
16732;DHT22;8484;50.904;9.192;2022-10-17T15:16:21;21.10;99.90
16732;DHT22;8484;50.904;9.192;2022-10-17T15:18:50;21.10;99.90
16732;DHT22;8484;50.904;9.192;2022-10-17T15:21:19;21.00;99.90
16732;DHT22;8484;50.904;9.192;2022-10-17T15:23:47;20.90;99.90
16732;DHT22;8484;50.904;9.192;2022-10-17T15:26:16;21.00;99.90
16732;DHT22;8484;50.904;9.192;2022-10-17T15:28:43;20.90;99.90
16732;DHT22;8484;50.904;9.192;2022-10-17T15:31:14;21.00;99.90
16732;DHT22;8484;50.904;9.192;2022-10-17T15:33:41;20.80;99.90
16732;DHT22;8484;50.904;9.192;2022-10-17T15:36:19;20.60;99.90
16732;DHT22;8484;50.904;9.192;2022-10-17T15:38:47;20.50;99.90
16732;DHT22;8484;50.904;9.192;2022-10-17T15:41:14;20.60;99.90
16732;DHT22;8484;50.904;9.192;2022-10-17T15:43:41;20.30;99.90
16732;DHT22;8484;50.904;9.192;2022-10-17T15:46:12;20.20;99.90
16732;DHT22;8484;50.904;9.192;2022-10-17T15:48:40;20.20;99.90
16732;DHT22;8484;50.904;9.192;2022-10-17T15:51:07;20.00;99.90
16732;DHT22;8484;50.904;9.192;2022-10-17T15:53:36;20.00;99.90
16732;DHT22;8484;50.904;9.192;2022-10-17T15:56:03;20.20;99.90
16732;DHT22;8484;50.904;9.192;2022-10-17T15:58:34;20.00;99.90
16732;DHT22;8484;50.904;9.192;2022-10-17T16:01:03;20.00;99.90
16732;DHT22;8484;50.904;9.192;2022-10-17T16:03:31;20.00;99.90
16732;DHT22;8484;50.904;9.192;2022-10-17T16:05:58;19.90;99.90
16732;DHT22;8484;50.904;9.192;2022-10-17T16:08:25;20.00;99.90
16732;DHT22;8484;50.904;9.192;2022-10-17T16:10:54;20.00;99.90
16732;DHT22;8484;50.904;9.192;2022-10-17T16:13:23;20.10;99.90
16732;DHT22;8484;50.904;9.192;2022-10-17T16:15:50;20.20;99.90
16732;DHT22;8484;50.904;9.192;2022-10-17T16:18:17;20.10;99.90
16732;DHT22;8484;50.904;9.192;2022-10-17T16:20:45;20.10;99.90
16732;DHT22;8484;50.904;9.192;2022-10-17T16:23:12;19.90;99.90